sensor_id;sensor_type;location;lat;lon;timestamp;temperature;humidity
70762;DHT22;58360;0.000;0.000;2023-06-24T00:00:09;20.70;86.50
70762;DHT22;58360;0.000;0.000;2023-06-24T00:02:37;20.90;80.10
70762;DHT22;58360;0.000;0.000;2023-06-24T00:05:04;21.10;79.60
70762;DHT22;58360;0.000;0.000;2023-06-24T00:07:30;21.00;80.30
70762;DHT22;58360;0.000;0.000;2023-06-24T00:09:55;20.90;81.40
70762;DHT22;58360;0.000;0.000;2023-06-24T00:12:21;20.90;82.00
70762;DHT22;58360;0.000;0.000;2023-06-24T00:14:47;21.00;81.30
70762;DHT22;58360;0.000;0.000;2023-06-24T00:17:14;21.10;81.10
70762;DHT22;58360;0.000;0.000;2023-06-24T00:19:42;21.00;82.20
70762;DHT22;58360;0.000;0.000;2023-06-24T00:22:09;21.00;82.90
70762;DHT22;58360;0.000;0.000;2023-06-24T00:24:35;20.90;83.10
70762;DHT22;58360;0.000;0.000;2023-06-24T00:27:00;20.80;84.50
70762;DHT22;58360;0.000;0.000;2023-06-24T00:29:26;20.70;85.00
70762;DHT22;58360;0.000;0.000;2023-06-24T00:31:52;20.60;86.50
70762;DHT22;58360;0.000;0.000;2023-06-24T00:34:17;20.60;85.70
70762;DHT22;58360;0.000;0.000;2023-06-24T00:36:45;20.60;87.30
70762;DHT22;58360;0.000;0.000;2023-06-24T00:39:12;20.50;87.50
70762;DHT22;58360;0.000;0.000;2023-06-24T00:41:38;20.50;87.90
70762;DHT22;58360;0.000;0.000;2023-06-24T00:44:07;20.40;86.90
70762;DHT22;58360;0.000;0.000;2023-06-24T00:46:33;20.40;87.00
70762;DHT22;58360;0.000;0.000;2023-06-24T00:48:59;20.30;87.50
70762;DHT22;58360;0.000;0.000;2023-06-24T00:51:26;20.30;87.50
70762;DHT22;58360;0.000;0.000;2023-06-24T00:53:59;20.50;86.30
70762;DHT22;58360;0.000;0.000;2023-06-24T00:56:34;20.50;85.90
70762;DHT22;58360;0.000;0.000;2023-06-24T00:59:02;20.40;87.10
70762;DHT22;58360;0.000;0.000;2023-06-24T01:01:35;20.20;88.40
70762;DHT22;58360;0.000;0.000;2023-06-24T01:04:02;20.10;88.70
70762;DHT22;58360;0.000;0.000;2023-06-24T01:06:28;20.20;88.50
70762;DHT22;58360;0.000;0.000;2023-06-24T01:08:56;20.10;88.40
70762;DHT22;58360;0.000;0.000;2023-06-24T01:11:23;20.10;88.40
70762;DHT22;58360;0.000;0.000;2023-06-24T01:13:49;20.10;88.40
70762;DHT22;58360;0.000;0.000;2023-06-24T01:22:56;20.00;88.80
70762;DHT22;58360;0.000;0.000;2023-06-24T01:33:41;20.00;88.40
70762;DHT22;58360;0.000;0.000;2023-06-24T01:36:11;19.90;89.20
70762;DHT22;58360;0.000;0.000;2023-06-24T01:39:01;19.90;89.60
70762;DHT22;58360;0.000;0.000;2023-06-24T01:41:32;19.80;90.10
70762;DHT22;58360;0.000;0.000;2023-06-24T01:44:00;19.70;90.50
70762;DHT22;58360;0.000;0.000;2023-06-24T01:46:28;19.80;90.70
70762;DHT22;58360;0.000;0.000;2023-06-24T01:48:58;19.70;90.90
70762;DHT22;58360;0.000;0.000;2023-06-24T01:51:25;19.90;90.50
70762;DHT22;58360;0.000;0.000;2023-06-24T01:53:58;20.00;90.30
70762;DHT22;58360;0.000;0.000;2023-06-24T01:56:26;20.30;89.20
70762;DHT22;58360;0.000;0.000;2023-06-24T01:58:54;20.30;89.60
70762;DHT22;58360;0.000;0.000;2023-06-24T02:01:25;20.00;90.30
70762;DHT22;58360;0.000;0.000;2023-06-24T02:03:52;19.70;90.80
70762;DHT22;58360;0.000;0.000;2023-06-24T02:06:19;19.80;90.70
70762;DHT22;58360;0.000;0.000;2023-06-24T02:08:50;19.60;91.40
70762;DHT22;58360;0.000;0.000;2023-06-24T02:11:18;19.80;90.20
70762;DHT22;58360;0.000;0.000;2023-06-24T02:13:45;19.80;90.50
70762;DHT22;58360;0.000;0.000;2023-06-24T02:16:11;19.60;90.80
70762;DHT22;58360;0.000;0.000;2023-06-24T02:18:39;19.50;90.80
70762;DHT22;58360;0.000;0.000;2023-06-24T02:21:08;19.70;90.00
70762;DHT22;58360;0.000;0.000;2023-06-24T02:23:36;19.80;89.50
70762;DHT22;58360;0.000;0.000;2023-06-24T02:26:06;19.90;89.20
70762;DHT22;58360;0.000;0.000;2023-06-24T02:28:33;19.90;88.80
70762;DHT22;58360;0.000;0.000;2023-06-24T02:30:59;19.70;90.10
70762;DHT22;58360;0.000;0.000;2023-06-24T02:33:26;19.70;90.10
70762;DHT22;58360;0.000;0.000;2023-06-24T02:35:52;19.70;89.10
70762;DHT22;58360;0.000;0.000;2023-06-24T02:38:18;19.70;89.60
70762;DHT22;58360;0.000;0.000;2023-06-24T02:40:45;19.90;88.60
70762;DHT22;58360;0.000;0.000;2023-06-24T02:43:11;19.80;88.90
70762;DHT22;58360;0.000;0.000;2023-06-24T02:45:37;19.60;89.50
70762;DHT22;58360;0.000;0.000;2023-06-24T02:48:04;19.40;90.40
70762;DHT22;58360;0.000;0.000;2023-06-24T02:50:31;19.40;90.30
70762;DHT22;58360;0.000;0.000;2023-06-24T02:52:57;19.40;89.90
70762;DHT22;58360;0.000;0.000;2023-06-24T02:55:23;19.60;87.60
70762;DHT22;58360;0.000;0.000;2023-06-24T02:57:49;19.90;86.30
70762;DHT22;58360;0.000;0.000;2023-06-24T03:00:16;20.00;86.00
70762;DHT22;58360;0.000;0.000;2023-06-24T03:02:43;20.10;85.20
70762;DHT22;58360;0.000;0.000;2023-06-24T03:05:10;20.00;85.60
70762;DHT22;58360;0.000;0.000;2023-06-24T03:07:37;19.80;87.10
70762;DHT22;58360;0.000;0.000;2023-06-24T03:10:03;19.40;89.40
70762;DHT22;58360;0.000;0.000;2023-06-24T03:12:31;19.10;90.50
70762;DHT22;58360;0.000;0.000;2023-06-24T03:14:57;18.90;90.80
70762;DHT22;58360;0.000;0.000;2023-06-24T03:17:23;18.90;91.00
70762;DHT22;58360;0.000;0.000;2023-06-24T03:19:50;19.00;90.70
70762;DHT22;58360;0.000;0.000;2023-06-24T03:22:16;19.00;90.80
70762;DHT22;58360;0.000;0.000;2023-06-24T03:24:42;19.20;90.10
70762;DHT22;58360;0.000;0.000;2023-06-24T03:27:08;19.40;88.80
70762;DHT22;58360;0.000;0.000;2023-06-24T03:29:34;19.60;87.70
70762;DHT22;58360;0.000;0.000;2023-06-24T03:31:59;19.70;86.30
70762;DHT22;58360;0.000;0.000;2023-06-24T03:34:25;19.40;88.50
70762;DHT22;58360;0.000;0.000;2023-06-24T03:36:53;19.00;89.80
70762;DHT22;58360;0.000;0.000;2023-06-24T03:39:20;18.90;90.20
70762;DHT22;58360;0.000;0.000;2023-06-24T03:41:46;18.70;90.70
70762;DHT22;58360;0.000;0.000;2023-06-24T03:44:12;18.70;90.80
70762;DHT22;58360;0.000;0.000;2023-06-24T03:46:37;18.60;90.90
70762;DHT22;58360;0.000;0.000;2023-06-24T03:49:03;18.50;90.80
70762;DHT22;58360;0.000;0.000;2023-06-24T03:51:29;18.50;90.60
70762;DHT22;58360;0.000;0.000;2023-06-24T03:53:55;18.50;90.70
70762;DHT22;58360;0.000;0.000;2023-06-24T03:56:20;18.40;90.50
70762;DHT22;58360;0.000;0.000;2023-06-24T03:58:46;18.30;90.80
70762;DHT22;58360;0.000;0.000;2023-06-24T04:01:11;18.40;90.90
70762;DHT22;58360;0.000;0.000;2023-06-24T04:03:37;18.40;90.90
70762;DHT22;58360;0.000;0.000;2023-06-24T04:06:03;18.50;90.90
70762;DHT22;58360;0.000;0.000;2023-06-24T04:08:28;18.50;90.90
70762;DHT22;58360;0.000;0.000;2023-06-24T04:10:57;18.50;90.70
70762;DHT22;58360;0.000;0.000;2023-06-24T04:13:25;18.40;90.50
70762;DHT22;58360;0.000;0.000;2023-06-24T04:15:51;18.40;90.50
70762;DHT22;58360;0.000;0.000;2023-06-24T04:18:18;18.40;90.80
70762;DHT22;58360;0.000;0.000;2023-06-24T04:20:44;18.60;90.20
70762;DHT22;58360;0.000;0.000;2023-06-24T04:23:09;18.60;90.20
70762;DHT22;58360;0.000;0.000;2023-06-24T04:25:36;18.60;90.20
70762;DHT22;58360;0.000;0.000;2023-06-24T04:28:02;18.70;89.50
70762;DHT22;58360;0.000;0.000;2023-06-24T04:30:30;18.70;90.20
70762;DHT22;58360;0.000;0.000;2023-06-24T04:32:55;18.70;90.10
70762;DHT22;58360;0.000;0.000;2023-06-24T04:35:21;18.70;89.90
70762;DHT22;58360;0.000;0.000;2023-06-24T04:37:47;18.70;89.50
70762;DHT22;58360;0.000;0.000;2023-06-24T04:40:16;18.70;89.90
70762;DHT22;58360;0.000;0.000;2023-06-24T04:42:42;18.90;89.40
70762;DHT22;58360;0.000;0.000;2023-06-24T04:45:08;19.00;87.90
70762;DHT22;58360;0.000;0.000;2023-06-24T04:47:34;19.00;87.90
70762;DHT22;58360;0.000;0.000;2023-06-24T04:49:59;18.90;89.00
70762;DHT22;58360;0.000;0.000;2023-06-24T04:52:25;18.80;89.10
70762;DHT22;58360;0.000;0.000;2023-06-24T04:54:51;18.80;89.10
70762;DHT22;58360;0.000;0.000;2023-06-24T04:57:27;19.00;88.00
70762;DHT22;58360;0.000;0.000;2023-06-24T04:59:53;19.20;87.90
70762;DHT22;58360;0.000;0.000;2023-06-24T05:02:19;19.10;88.20
70762;DHT22;58360;0.000;0.000;2023-06-24T05:04:44;19.10;87.70
70762;DHT22;58360;0.000;0.000;2023-06-24T05:07:10;19.20;88.60
70762;DHT22;58360;0.000;0.000;2023-06-24T05:09:36;19.40;87.80
70762;DHT22;58360;0.000;0.000;2023-06-24T05:12:05;19.50;87.00
70762;DHT22;58360;0.000;0.000;2023-06-24T05:14:31;19.60;87.20
70762;DHT22;58360;0.000;0.000;2023-06-24T05:16:56;20.00;87.00
70762;DHT22;58360;0.000;0.000;2023-06-24T05:19:22;20.30;87.70
70762;DHT22;58360;0.000;0.000;2023-06-24T05:21:48;20.70;81.10
70762;DHT22;58360;0.000;0.000;2023-06-24T05:24:13;21.10;80.30
70762;DHT22;58360;0.000;0.000;2023-06-24T05:26:39;20.90;79.90
70762;DHT22;58360;0.000;0.000;2023-06-24T05:29:05;20.90;80.60
70762;DHT22;58360;0.000;0.000;2023-06-24T05:31:30;21.00;80.30
70762;DHT22;58360;0.000;0.000;2023-06-24T05:33:56;21.00;80.30
70762;DHT22;58360;0.000;0.000;2023-06-24T05:36:22;20.90;79.80
70762;DHT22;58360;0.000;0.000;2023-06-24T05:38:47;20.70;80.30
70762;DHT22;58360;0.000;0.000;2023-06-24T05:41:14;20.60;80.80
70762;DHT22;58360;0.000;0.000;2023-06-24T05:43:43;20.80;79.30
70762;DHT22;58360;0.000;0.000;2023-06-24T05:46:09;21.00;78.70
70762;DHT22;58360;0.000;0.000;2023-06-24T05:48:34;20.90;80.40
70762;DHT22;58360;0.000;0.000;2023-06-24T05:51:00;20.90;79.10
70762;DHT22;58360;0.000;0.000;2023-06-24T05:53:25;21.10;78.40
70762;DHT22;58360;0.000;0.000;2023-06-24T05:55:51;21.20;77.30
70762;DHT22;58360;0.000;0.000;2023-06-24T05:58:17;21.10;77.90
70762;DHT22;58360;0.000;0.000;2023-06-24T06:00:42;21.00;78.10
70762;DHT22;58360;0.000;0.000;2023-06-24T06:03:08;21.10;77.90
70762;DHT22;58360;0.000;0.000;2023-06-24T06:05:34;21.10;78.50
70762;DHT22;58360;0.000;0.000;2023-06-24T06:08:00;21.10;78.90
70762;DHT22;58360;0.000;0.000;2023-06-24T06:10:26;21.10;78.60
70762;DHT22;58360;0.000;0.000;2023-06-24T06:12:51;21.00;80.00
70762;DHT22;58360;0.000;0.000;2023-06-24T06:15:18;21.00;79.80
70762;DHT22;58360;0.000;0.000;2023-06-24T06:17:45;21.00;79.70
70762;DHT22;58360;0.000;0.000;2023-06-24T06:20:11;21.20;78.30
70762;DHT22;58360;0.000;0.000;2023-06-24T06:22:37;21.20;79.00
70762;DHT22;58360;0.000;0.000;2023-06-24T06:25:05;21.20;78.30
70762;DHT22;58360;0.000;0.000;2023-06-24T06:27:31;21.20;78.70
70762;DHT22;58360;0.000;0.000;2023-06-24T06:29:57;21.10;79.40
70762;DHT22;58360;0.000;0.000;2023-06-24T06:32:22;21.10;79.30
70762;DHT22;58360;0.000;0.000;2023-06-24T06:34:48;21.20;79.90
70762;DHT22;58360;0.000;0.000;2023-06-24T06:37:14;21.20;79.30
70762;DHT22;58360;0.000;0.000;2023-06-24T06:39:39;21.20;79.30
70762;DHT22;58360;0.000;0.000;2023-06-24T06:42:05;21.40;78.50
70762;DHT22;58360;0.000;0.000;2023-06-24T06:44:31;21.40;78.60
70762;DHT22;58360;0.000;0.000;2023-06-24T06:46:57;21.50;78.30
70762;DHT22;58360;0.000;0.000;2023-06-24T06:49:22;21.50;78.00
70762;DHT22;58360;0.000;0.000;2023-06-24T06:51:48;21.40;78.50
70762;DHT22;58360;0.000;0.000;2023-06-24T06:54:14;21.50;78.30
70762;DHT22;58360;0.000;0.000;2023-06-24T06:56:39;21.50;79.20
70762;DHT22;58360;0.000;0.000;2023-06-24T06:59:05;21.70;77.60
70762;DHT22;58360;0.000;0.000;2023-06-24T07:01:31;21.90;77.30
70762;DHT22;58360;0.000;0.000;2023-06-24T07:03:56;22.60;76.50
70762;DHT22;58360;0.000;0.000;2023-06-24T07:06:22;23.30;73.90
70762;DHT22;58360;0.000;0.000;2023-06-24T07:08:48;24.10;72.30
70762;DHT22;58360;0.000;0.000;2023-06-24T07:11:13;24.80;69.20
70762;DHT22;58360;0.000;0.000;2023-06-24T07:13:39;25.40;68.10
70762;DHT22;58360;0.000;0.000;2023-06-24T07:16:06;26.10;66.60
70762;DHT22;58360;0.000;0.000;2023-06-24T07:18:31;26.80;66.00
70762;DHT22;58360;0.000;0.000;2023-06-24T07:20:59;27.50;63.20
70762;DHT22;58360;0.000;0.000;2023-06-24T07:23:25;28.20;61.40
70762;DHT22;58360;0.000;0.000;2023-06-24T07:25:51;28.80;60.40
70762;DHT22;58360;0.000;0.000;2023-06-24T07:28:16;29.30;57.10
70762;DHT22;58360;0.000;0.000;2023-06-24T07:30:42;29.70;58.80
70762;DHT22;58360;0.000;0.000;2023-06-24T07:33:09;30.10;55.80
70762;DHT22;58360;0.000;0.000;2023-06-24T07:35:35;30.60;54.40
70762;DHT22;58360;0.000;0.000;2023-06-24T07:38:00;31.20;54.60
70762;DHT22;58360;0.000;0.000;2023-06-24T07:40:26;31.70;51.70
70762;DHT22;58360;0.000;0.000;2023-06-24T07:42:53;32.10;52.30
70762;DHT22;58360;0.000;0.000;2023-06-24T07:45:19;32.40;50.30
70762;DHT22;58360;0.000;0.000;2023-06-24T07:47:45;32.30;51.80
70762;DHT22;58360;0.000;0.000;2023-06-24T07:50:10;33.20;49.80
70762;DHT22;58360;0.000;0.000;2023-06-24T07:52:37;33.80;46.90
70762;DHT22;58360;0.000;0.000;2023-06-24T07:55:03;34.20;46.70
70762;DHT22;58360;0.000;0.000;2023-06-24T07:57:29;34.20;46.80
70762;DHT22;58360;0.000;0.000;2023-06-24T07:59:55;34.40;45.30
70762;DHT22;58360;0.000;0.000;2023-06-24T08:02:21;34.30;47.30
70762;DHT22;58360;0.000;0.000;2023-06-24T08:04:47;34.70;45.60
70762;DHT22;58360;0.000;0.000;2023-06-24T08:07:12;35.20;45.00
70762;DHT22;58360;0.000;0.000;2023-06-24T08:09:38;34.80;48.80
70762;DHT22;58360;0.000;0.000;2023-06-24T08:12:04;34.90;45.20
70762;DHT22;58360;0.000;0.000;2023-06-24T08:14:30;35.40;44.00
70762;DHT22;58360;0.000;0.000;2023-06-24T08:16:55;35.60;47.00
70762;DHT22;58360;0.000;0.000;2023-06-24T08:19:21;35.70;44.70
70762;DHT22;58360;0.000;0.000;2023-06-24T08:21:46;35.80;46.30
70762;DHT22;58360;0.000;0.000;2023-06-24T08:24:12;36.30;41.70
70762;DHT22;58360;0.000;0.000;2023-06-24T08:26:38;36.70;43.20
70762;DHT22;58360;0.000;0.000;2023-06-24T08:29:03;36.80;42.90
70762;DHT22;58360;0.000;0.000;2023-06-24T08:31:29;36.70;42.40
70762;DHT22;58360;0.000;0.000;2023-06-24T08:33:56;37.30;39.80
70762;DHT22;58360;0.000;0.000;2023-06-24T08:36:27;37.20;42.10
70762;DHT22;58360;0.000;0.000;2023-06-24T08:38:53;37.30;40.90
70762;DHT22;58360;0.000;0.000;2023-06-24T08:41:18;37.80;39.10
70762;DHT22;58360;0.000;0.000;2023-06-24T08:43:44;37.60;40.00
70762;DHT22;58360;0.000;0.000;2023-06-24T08:46:10;37.40;39.90
70762;DHT22;58360;0.000;0.000;2023-06-24T08:48:39;37.50;39.60
70762;DHT22;58360;0.000;0.000;2023-06-24T08:51:08;37.30;39.00
70762;DHT22;58360;0.000;0.000;2023-06-24T08:53:36;37.50;39.80
70762;DHT22;58360;0.000;0.000;2023-06-24T08:56:03;38.10;40.00
70762;DHT22;58360;0.000;0.000;2023-06-24T08:58:29;38.30;40.70
70762;DHT22;58360;0.000;0.000;2023-06-24T09:00:55;38.90;38.60
70762;DHT22;58360;0.000;0.000;2023-06-24T09:03:22;39.40;39.30
70762;DHT22;58360;0.000;0.000;2023-06-24T09:05:48;39.90;37.30
70762;DHT22;58360;0.000;0.000;2023-06-24T09:08:14;39.70;39.00
70762;DHT22;58360;0.000;0.000;2023-06-24T09:10:41;39.70;37.70
70762;DHT22;58360;0.000;0.000;2023-06-24T09:13:07;39.50;40.20
70762;DHT22;58360;0.000;0.000;2023-06-24T09:15:34;39.40;40.40
70762;DHT22;58360;0.000;0.000;2023-06-24T09:18:00;40.10;37.10
70762;DHT22;58360;0.000;0.000;2023-06-24T09:20:29;41.10;36.80
70762;DHT22;58360;0.000;0.000;2023-06-24T09:23:03;41.40;38.10
70762;DHT22;58360;0.000;0.000;2023-06-24T09:25:29;41.40;37.00
70762;DHT22;58360;0.000;0.000;2023-06-24T09:27:59;41.10;36.00
70762;DHT22;58360;0.000;0.000;2023-06-24T09:30:25;41.00;34.80
70762;DHT22;58360;0.000;0.000;2023-06-24T09:32:52;41.80;32.00
70762;DHT22;58360;0.000;0.000;2023-06-24T09:35:22;41.20;34.00
70762;DHT22;58360;0.000;0.000;2023-06-24T09:37:52;40.70;33.00
70762;DHT22;58360;0.000;0.000;2023-06-24T09:40:19;41.60;34.50
70762;DHT22;58360;0.000;0.000;2023-06-24T09:42:52;41.80;32.70
70762;DHT22;58360;0.000;0.000;2023-06-24T09:45:21;41.60;35.50
70762;DHT22;58360;0.000;0.000;2023-06-24T09:47:46;42.00;35.60
70762;DHT22;58360;0.000;0.000;2023-06-24T09:50:12;42.00;34.40
70762;DHT22;58360;0.000;0.000;2023-06-24T09:52:38;42.20;31.20
70762;DHT22;58360;0.000;0.000;2023-06-24T09:55:04;42.50;31.00
70762;DHT22;58360;0.000;0.000;2023-06-24T09:57:32;41.80;31.90
70762;DHT22;58360;0.000;0.000;2023-06-24T10:00:00;41.40;32.10
70762;DHT22;58360;0.000;0.000;2023-06-24T10:02:28;41.70;33.00
70762;DHT22;58360;0.000;0.000;2023-06-24T10:04:55;42.30;30.70
70762;DHT22;58360;0.000;0.000;2023-06-24T10:07:21;42.40;32.80
70762;DHT22;58360;0.000;0.000;2023-06-24T10:09:47;42.30;33.60
70762;DHT22;58360;0.000;0.000;2023-06-24T10:12:14;42.70;32.10
70762;DHT22;58360;0.000;0.000;2023-06-24T10:14:39;43.00;30.50
70762;DHT22;58360;0.000;0.000;2023-06-24T10:17:05;43.00;31.80
70762;DHT22;58360;0.000;0.000;2023-06-24T10:19:38;43.10;30.70
70762;DHT22;58360;0.000;0.000;2023-06-24T10:22:10;42.80;31.60
70762;DHT22;58360;0.000;0.000;2023-06-24T10:24:41;42.60;33.60
70762;DHT22;58360;0.000;0.000;2023-06-24T10:27:30;43.20;31.00
70762;DHT22;58360;0.000;0.000;2023-06-24T10:30:03;43.50;29.90
70762;DHT22;58360;0.000;0.000;2023-06-24T10:32:42;43.20;29.20
70762;DHT22;58360;0.000;0.000;2023-06-24T10:35:24;43.20;32.60
70762;DHT22;58360;0.000;0.000;2023-06-24T10:37:55;43.00;31.70
70762;DHT22;58360;0.000;0.000;2023-06-24T10:40:43;43.10;30.90
70762;DHT22;58360;0.000;0.000;2023-06-24T10:43:27;43.50;29.90
70762;DHT22;58360;0.000;0.000;2023-06-24T10:45:56;43.70;30.70
70762;DHT22;58360;0.000;0.000;2023-06-24T10:48:22;43.80;31.70
70762;DHT22;58360;0.000;0.000;2023-06-24T10:50:48;43.50;31.70
70762;DHT22;58360;0.000;0.000;2023-06-24T10:53:17;43.70;31.70
70762;DHT22;58360;0.000;0.000;2023-06-24T10:55:44;44.00;31.40
70762;DHT22;58360;0.000;0.000;2023-06-24T10:58:11;43.90;30.10
70762;DHT22;58360;0.000;0.000;2023-06-24T11:00:39;44.40;31.30
70762;DHT22;58360;0.000;0.000;2023-06-24T11:03:12;44.40;28.90
70762;DHT22;58360;0.000;0.000;2023-06-24T11:05:42;43.10;31.40
70762;DHT22;58360;0.000;0.000;2023-06-24T11:08:09;43.70;32.50
70762;DHT22;58360;0.000;0.000;2023-06-24T11:10:45;43.70;31.20
70762;DHT22;58360;0.000;0.000;2023-06-24T11:13:12;44.50;30.00
70762;DHT22;58360;0.000;0.000;2023-06-24T11:15:39;43.70;30.10
70762;DHT22;58360;0.000;0.000;2023-06-24T11:18:08;43.80;31.90
70762;DHT22;58360;0.000;0.000;2023-06-24T11:20:38;44.20;30.50
70762;DHT22;58360;0.000;0.000;2023-06-24T11:23:07;44.80;29.50
70762;DHT22;58360;0.000;0.000;2023-06-24T11:25:39;44.80;30.90
70762;DHT22;58360;0.000;0.000;2023-06-24T11:28:11;44.50;29.30
70762;DHT22;58360;0.000;0.000;2023-06-24T11:30:37;43.80;29.10
70762;DHT22;58360;0.000;0.000;2023-06-24T11:33:02;43.50;31.80
70762;DHT22;58360;0.000;0.000;2023-06-24T11:35:28;43.70;29.70
70762;DHT22;58360;0.000;0.000;2023-06-24T11:37:58;43.40;31.90
70762;DHT22;58360;0.000;0.000;2023-06-24T11:40:23;44.60;30.80
70762;DHT22;58360;0.000;0.000;2023-06-24T11:42:51;45.00;32.90
70762;DHT22;58360;0.000;0.000;2023-06-24T11:45:20;44.90;30.10
70762;DHT22;58360;0.000;0.000;2023-06-24T11:47:46;44.20;29.80
70762;DHT22;58360;0.000;0.000;2023-06-24T11:50:14;44.50;31.90
70762;DHT22;58360;0.000;0.000;2023-06-24T11:52:48;44.90;30.00
70762;DHT22;58360;0.000;0.000;2023-06-24T11:55:22;45.30;29.60
70762;DHT22;58360;0.000;0.000;2023-06-24T11:57:56;45.10;30.60
70762;DHT22;58360;0.000;0.000;2023-06-24T12:00:25;45.40;29.60
70762;DHT22;58360;0.000;0.000;2023-06-24T12:02:56;45.30;29.90
70762;DHT22;58360;0.000;0.000;2023-06-24T12:05:33;44.50;29.90
70762;DHT22;58360;0.000;0.000;2023-06-24T12:08:01;44.40;31.50
70762;DHT22;58360;0.000;0.000;2023-06-24T12:10:28;44.80;30.50
70762;DHT22;58360;0.000;0.000;2023-06-24T12:12:59;44.80;30.00
70762;DHT22;58360;0.000;0.000;2023-06-24T12:15:28;44.60;31.80
70762;DHT22;58360;0.000;0.000;2023-06-24T12:17:54;43.80;29.60
70762;DHT22;58360;0.000;0.000;2023-06-24T12:20:20;43.70;31.10
70762;DHT22;58360;0.000;0.000;2023-06-24T12:22:47;44.10;32.10
70762;DHT22;58360;0.000;0.000;2023-06-24T12:25:13;43.90;29.60
70762;DHT22;58360;0.000;0.000;2023-06-24T12:27:39;43.80;32.30
70762;DHT22;58360;0.000;0.000;2023-06-24T12:30:08;44.30;30.30
70762;DHT22;58360;0.000;0.000;2023-06-24T12:32:34;44.50;31.80
70762;DHT22;58360;0.000;0.000;2023-06-24T12:35:00;44.60;29.40
70762;DHT22;58360;0.000;0.000;2023-06-24T12:37:28;44.00;30.50
70762;DHT22;58360;0.000;0.000;2023-06-24T12:39:54;44.20;29.40
70762;DHT22;58360;0.000;0.000;2023-06-24T12:42:19;43.10;31.00
70762;DHT22;58360;0.000;0.000;2023-06-24T12:44:45;43.20;32.30
70762;DHT22;58360;0.000;0.000;2023-06-24T12:47:11;43.30;29.10
70762;DHT22;58360;0.000;0.000;2023-06-24T12:49:36;43.20;31.70
70762;DHT22;58360;0.000;0.000;2023-06-24T12:52:02;43.00;29.00
70762;DHT22;58360;0.000;0.000;2023-06-24T12:54:28;42.20;29.40
70762;DHT22;58360;0.000;0.000;2023-06-24T12:56:53;42.60;32.00
70762;DHT22;58360;0.000;0.000;2023-06-24T12:59:19;42.70;30.40
70762;DHT22;58360;0.000;0.000;2023-06-24T13:01:44;42.40;31.00
70762;DHT22;58360;0.000;0.000;2023-06-24T13:04:11;42.60;31.10
70762;DHT22;58360;0.000;0.000;2023-06-24T13:06:36;42.10;33.40
70762;DHT22;58360;0.000;0.000;2023-06-24T13:09:02;42.10;31.30
70762;DHT22;58360;0.000;0.000;2023-06-24T13:11:28;41.80;32.00
70762;DHT22;58360;0.000;0.000;2023-06-24T13:13:54;41.90;31.20
70762;DHT22;58360;0.000;0.000;2023-06-24T13:16:20;42.10;31.70
70762;DHT22;58360;0.000;0.000;2023-06-24T13:18:46;42.60;32.00
70762;DHT22;58360;0.000;0.000;2023-06-24T13:21:11;41.80;32.10
70762;DHT22;58360;0.000;0.000;2023-06-24T13:23:37;41.60;32.70
70762;DHT22;58360;0.000;0.000;2023-06-24T13:26:04;42.00;32.10
70762;DHT22;58360;0.000;0.000;2023-06-24T13:28:29;41.80;33.30
70762;DHT22;58360;0.000;0.000;2023-06-24T13:30:57;41.40;30.00
70762;DHT22;58360;0.000;0.000;2023-06-24T13:33:22;41.50;32.30
70762;DHT22;58360;0.000;0.000;2023-06-24T13:35:48;40.80;31.60
70762;DHT22;58360;0.000;0.000;2023-06-24T13:38:17;39.80;34.50
70762;DHT22;58360;0.000;0.000;2023-06-24T13:40:43;40.10;34.00
70762;DHT22;58360;0.000;0.000;2023-06-24T13:43:09;40.30;33.20
70762;DHT22;58360;0.000;0.000;2023-06-24T13:45:34;40.20;33.30
70762;DHT22;58360;0.000;0.000;2023-06-24T13:48:00;40.20;33.40
70762;DHT22;58360;0.000;0.000;2023-06-24T13:50:25;40.10;30.80
70762;DHT22;58360;0.000;0.000;2023-06-24T13:52:51;39.60;35.50
70762;DHT22;58360;0.000;0.000;2023-06-24T13:55:17;39.60;33.50
70762;DHT22;58360;0.000;0.000;2023-06-24T13:57:42;38.40;33.30
70762;DHT22;58360;0.000;0.000;2023-06-24T14:00:09;38.50;33.70
70762;DHT22;58360;0.000;0.000;2023-06-24T14:02:35;39.00;34.50
70762;DHT22;58360;0.000;0.000;2023-06-24T14:05:00;39.00;31.70
70762;DHT22;58360;0.000;0.000;2023-06-24T14:07:27;38.60;29.90
70762;DHT22;58360;0.000;0.000;2023-06-24T14:09:53;38.30;32.50
70762;DHT22;58360;0.000;0.000;2023-06-24T14:12:18;37.90;36.00
70762;DHT22;58360;0.000;0.000;2023-06-24T14:14:44;37.90;32.70
70762;DHT22;58360;0.000;0.000;2023-06-24T14:17:10;38.20;33.40
70762;DHT22;58360;0.000;0.000;2023-06-24T14:19:38;38.40;34.60
70762;DHT22;58360;0.000;0.000;2023-06-24T14:22:04;38.00;35.10
70762;DHT22;58360;0.000;0.000;2023-06-24T14:24:32;37.70;32.70
70762;DHT22;58360;0.000;0.000;2023-06-24T14:26:58;37.80;35.10
70762;DHT22;58360;0.000;0.000;2023-06-24T14:29:24;37.80;37.00
70762;DHT22;58360;0.000;0.000;2023-06-24T14:31:51;37.90;35.10
70762;DHT22;58360;0.000;0.000;2023-06-24T14:34:17;38.00;36.50
70762;DHT22;58360;0.000;0.000;2023-06-24T14:36:43;37.70;35.00
70762;DHT22;58360;0.000;0.000;2023-06-24T14:39:09;37.00;35.80
70762;DHT22;58360;0.000;0.000;2023-06-24T14:41:35;37.30;35.10
70762;DHT22;58360;0.000;0.000;2023-06-24T14:44:00;37.50;34.60
70762;DHT22;58360;0.000;0.000;2023-06-24T14:46:26;37.70;35.80
70762;DHT22;58360;0.000;0.000;2023-06-24T14:48:52;37.90;34.00
70762;DHT22;58360;0.000;0.000;2023-06-24T14:51:17;37.90;35.80
70762;DHT22;58360;0.000;0.000;2023-06-24T14:53:43;37.90;32.30
70762;DHT22;58360;0.000;0.000;2023-06-24T14:56:08;37.70;34.00
70762;DHT22;58360;0.000;0.000;2023-06-24T14:58:34;37.70;35.00
70762;DHT22;58360;0.000;0.000;2023-06-24T15:01:00;37.80;34.80
70762;DHT22;58360;0.000;0.000;2023-06-24T15:03:25;37.40;36.60
70762;DHT22;58360;0.000;0.000;2023-06-24T15:05:51;37.10;34.60
70762;DHT22;58360;0.000;0.000;2023-06-24T15:08:17;37.10;36.20
70762;DHT22;58360;0.000;0.000;2023-06-24T15:10:42;36.90;32.70
70762;DHT22;58360;0.000;0.000;2023-06-24T15:13:08;36.90;32.40
70762;DHT22;58360;0.000;0.000;2023-06-24T15:15:34;36.90;32.20
70762;DHT22;58360;0.000;0.000;2023-06-24T15:18:00;36.60;35.50
70762;DHT22;58360;0.000;0.000;2023-06-24T15:20:26;36.50;35.60
70762;DHT22;58360;0.000;0.000;2023-06-24T15:22:51;36.10;36.10
70762;DHT22;58360;0.000;0.000;2023-06-24T15:25:17;36.10;35.10
70762;DHT22;58360;0.000;0.000;2023-06-24T15:27:43;36.10;35.10
70762;DHT22;58360;0.000;0.000;2023-06-24T15:30:09;36.30;34.50
70762;DHT22;58360;0.000;0.000;2023-06-24T15:32:34;36.20;34.80
70762;DHT22;58360;0.000;0.000;2023-06-24T15:35:04;36.00;34.60
70762;DHT22;58360;0.000;0.000;2023-06-24T15:37:29;36.00;35.10
70762;DHT22;58360;0.000;0.000;2023-06-24T15:39:55;35.80;32.30
70762;DHT22;58360;0.000;0.000;2023-06-24T15:42:21;35.90;33.20
70762;DHT22;58360;0.000;0.000;2023-06-24T15:44:46;35.90;33.20
70762;DHT22;58360;0.000;0.000;2023-06-24T15:47:12;35.90;32.20
70762;DHT22;58360;0.000;0.000;2023-06-24T15:49:38;35.80;34.10
70762;DHT22;58360;0.000;0.000;2023-06-24T15:52:03;35.90;33.70
70762;DHT22;58360;0.000;0.000;2023-06-24T15:54:29;35.90;32.80
70762;DHT22;58360;0.000;0.000;2023-06-24T15:56:55;35.60;32.00